Time;durP1;ratioP1;P1;durP2;ratioP2;P2;SDS_P1;SDS_P2;PMS_P1;PMS_P2;Temp;Humidity;BMP_temperature;BMP_pressure;BME280_temperature;BME280_humidity;BME280_pressure;Samples;Min_cycle;Max_cycle;Signal;HPM_P1;HPM_P2
2023/08/05 00:00:42;;;;;;;3.72;1.08;;;22.70;1.00;;;;;;4925476;29;20067;-41
2023/08/05 00:03:09;;;;;;;2.45;1.17;;;22.70;1.00;;;;;;4919021;29;20108;-41
2023/08/05 00:05:37;;;;;;;2.35;1.30;;;22.70;1.00;;;;;;4900577;29;20147;-41
2023/08/05 00:08:05;;;;;;;2.35;1.15;;;22.70;1.00;;;;;;4925454;29;20076;-41
2023/08/05 00:10:32;;;;;;;2.47;1.42;;;22.70;1.00;;;;;;4901298;29;20497;-41
2023/08/05 00:12:58;;;;;;;2.70;1.20;;;22.70;1.00;;;;;;4909371;29;20412;-41
2023/08/05 00:15:25;;;;;;;3.17;1.35;;;22.70;1.00;;;;;;4917781;29;20048;-41
2023/08/05 00:17:52;;;;;;;5.60;1.80;;;22.70;1.00;;;;;;4917311;29;20052;-43
2023/08/05 00:20:19;;;;;;;2.40;1.05;;;22.70;1.00;;;;;;4925204;29;20051;-41
2023/08/05 00:22:46;;;;;;;4.25;1.17;;;22.70;1.00;;;;;;4916796;29;20128;-41
2023/08/05 00:25:13;;;;;;;3.53;1.08;;;22.70;1.00;;;;;;4925501;29;20055;-43
2023/08/05 00:27:39;;;;;;;2.60;1.63;;;22.70;1.00;;;;;;4925169;29;20055;-43
2023/08/05 00:30:07;;;;;;;4.55;1.80;;;22.70;1.00;;;;;;4925840;29;20472;-42
2023/08/05 00:32:36;;;;;;;4.90;1.08;;;22.70;1.00;;;;;;4908309;29;20072;-42
2023/08/05 00:35:04;;;;;;;1.77;1.05;;;22.70;1.00;;;;;;4894412;29;20048;-43
2023/08/05 00:37:35;;;;;;;3.88;1.17;;;22.70;1.00;;;;;;4917179;29;20051;-41
2023/08/05 00:40:04;;;;;;;3.95;1.05;;;22.70;1.00;;;;;;4909820;29;20072;-40
2023/08/05 00:42:32;;;;;;;3.45;1.17;;;22.70;1.00;;;;;;4907481;29;20041;-41
2023/08/05 00:44:59;;;;;;;3.35;1.10;;;22.70;1.00;;;;;;4907499;29;20087;-40
2023/08/05 00:47:27;;;;;;;3.20;1.10;;;22.70;1.00;;;;;;4900394;29;20060;-41
2023/08/05 00:49:57;;;;;;;2.47;1.20;;;22.70;1.00;;;;;;4907578;29;20083;-42
2023/08/05 00:52:25;;;;;;;1.60;1.10;;;22.70;1.00;;;;;;4908138;29;20048;-40
2023/08/05 00:54:52;;;;;;;2.45;1.40;;;22.70;1.00;;;;;;4900351;29;20048;-41
2023/08/05 00:57:20;;;;;;;1.73;1.05;;;22.70;1.00;;;;;;4925279;29;20040;-42
2023/08/05 00:59:48;;;;;;;2.10;1.50;;;22.70;1.00;;;;;;4900139;29;20112;-41
2023/08/05 01:02:15;;;;;;;1.80;1.00;;;22.70;1.00;;;;;;4908187;29;20048;-40
2023/08/05 01:04:41;;;;;;;4.82;1.58;;;22.70;1.00;;;;;;4907425;29;20050;-42
2023/08/05 01:07:09;;;;;;;3.72;1.20;;;22.60;1.00;;;;;;4911429;29;20059;-41
2023/08/05 01:09:36;;;;;;;2.38;1.45;;;22.70;1.00;;;;;;4910925;29;20055;-43
2023/08/05 01:12:03;;;;;;;3.83;0.90;;;22.60;1.00;;;;;;4921257;29;20074;-41
2023/08/05 01:14:31;;;;;;;4.82;1.42;;;22.60;1.00;;;;;;4885892;29;20049;-40
2023/08/05 01:16:58;;;;;;;4.40;1.20;;;22.60;1.00;;;;;;4907524;29;20048;-41
2023/08/05 01:19:27;;;;;;;4.15;1.90;;;22.60;1.00;;;;;;4898490;29;20080;-42
2023/08/05 01:22:29;;;;;;;3.63;1.40;;;22.60;1.00;;;;;;4920998;29;20233;-40
2023/08/05 01:25:29;;;;;;;4.20;1.58;;;22.60;1.00;;;;;;4928316;29;20044;-40
2023/08/05 01:28:00;;;;;;;3.00;1.30;;;22.60;1.00;;;;;;4917770;29;20147;-40
2023/08/05 01:30:27;;;;;;;2.58;1.45;;;22.60;1.00;;;;;;4928530;29;20411;-40
2023/08/05 01:32:55;;;;;;;2.00;1.13;;;22.60;1.00;;;;;;4911123;29;20081;-40
2023/08/05 01:35:23;;;;;;;2.22;0.98;;;22.60;1.00;;;;;;4928275;29;20119;-41
2023/08/05 01:37:50;;;;;;;2.33;1.00;;;22.60;1.00;;;;;;4920328;29;20052;-40
2023/08/05 01:40:17;;;;;;;3.88;1.45;;;22.60;1.00;;;;;;4887494;29;20048;-42
2023/08/05 01:42:44;;;;;;;2.58;1.45;;;22.60;1.00;;;;;;4910939;29;20048;-41
2023/08/05 01:45:11;;;;;;;3.95;1.60;;;22.60;1.00;;;;;;4907599;29;20048;-40
2023/08/05 01:47:38;;;;;;;2.15;1.08;;;22.60;1.00;;;;;;4916717;29;20057;-40
2023/08/05 01:50:05;;;;;;;2.10;1.38;;;22.60;1.00;;;;;;4926600;29;20048;-40
2023/08/05 01:52:33;;;;;;;2.15;1.40;;;22.60;1.00;;;;;;4910904;29;20056;-41
2023/08/05 01:54:59;;;;;;;3.20;1.17;;;22.60;1.00;;;;;;4902661;29;20052;-42
2023/08/05 01:57:26;;;;;;;2.40;1.30;;;22.60;1.00;;;;;;4910683;29;20066;-41
2023/08/05 01:59:53;;;;;;;2.05;1.20;;;22.60;1.00;;;;;;4910512;29;20104;-40
2023/08/05 02:02:20;;;;;;;1.88;1.20;;;22.60;1.00;;;;;;4910805;29;20043;-42
2023/08/05 02:04:47;;;;;;;3.35;1.30;;;22.60;1.00;;;;;;4910155;29;20063;-40
2023/08/05 02:07:14;;;;;;;2.47;1.23;;;22.60;1.00;;;;;;4902923;29;20499;-40
2023/08/05 02:09:40;;;;;;;1.98;1.20;;;22.50;1.00;;;;;;4903129;29;20080;-41
2023/08/05 02:12:07;;;;;;;2.53;1.50;;;22.60;1.00;;;;;;4926537;29;20099;-40
2023/08/05 02:14:34;;;;;;;1.85;1.13;;;22.60;1.00;;;;;;4909846;29;20048;-42
2023/08/05 02:17:01;;;;;;;3.22;1.75;;;22.60;1.00;;;;;;4909991;29;20036;-43
2023/08/05 02:19:28;;;;;;;2.65;1.35;;;22.50;1.00;;;;;;4920003;29;20080;-41
2023/08/05 02:21:55;;;;;;;3.45;1.23;;;22.50;1.00;;;;;;4910504;29;20249;-40
2023/08/05 02:24:22;;;;;;;2.10;1.00;;;22.50;1.00;;;;;;4910142;29;20048;-41
2023/08/05 02:26:49;;;;;;;3.05;1.20;;;22.50;1.00;;;;;;4894921;29;20052;-41
2023/08/05 02:29:16;;;;;;;1.88;1.23;;;22.50;1.00;;;;;;4905975;29;20049;-41
2023/08/05 02:31:43;;;;;;;1.52;1.00;;;22.50;1.00;;;;;;4923549;29;20040;-40
2023/08/05 02:34:10;;;;;;;2.25;1.27;;;22.50;1.00;;;;;;4892080;29;20116;-42
2023/08/05 02:36:37;;;;;;;1.75;1.02;;;22.50;1.00;;;;;;4905518;29;20071;-40
2023/08/05 02:39:04;;;;;;;1.92;1.25;;;22.50;1.00;;;;;;4902143;29;20077;-42
2023/08/05 02:41:31;;;;;;;1.80;0.80;;;22.50;1.00;;;;;;4918694;29;20112;-40
2023/08/05 02:43:58;;;;;;;3.60;1.20;;;22.50;1.00;;;;;;4927227;29;20047;-41
2023/08/05 02:46:25;;;;;;;3.65;1.38;;;22.50;1.00;;;;;;4927024;29;20044;-41
2023/08/05 02:48:51;;;;;;;2.35;0.80;;;22.50;1.00;;;;;;4918703;29;20045;-40
2023/08/05 02:51:18;;;;;;;1.85;1.00;;;22.50;1.00;;;;;;4909212;29;20059;-41
2023/08/05 02:53:45;;;;;;;2.08;1.00;;;22.50;1.00;;;;;;4909680;29;20048;-42
2023/08/05 02:56:12;;;;;;;1.92;1.08;;;22.50;1.00;;;;;;4915269;29;20052;-40
2023/08/05 02:58:39;;;;;;;4.60;1.48;;;22.50;1.00;;;;;;4905650;29;20048;-40
2023/08/05 03:01:08;;;;;;;3.72;1.13;;;22.50;1.00;;;;;;4907654;29;20052;-42
2023/08/05 03:03:38;;;;;;;1.98;1.35;;;22.50;1.00;;;;;;4904634;29;20045;-41
2023/08/05 03:06:05;;;;;;;2.20;1.20;;;22.50;1.00;;;;;;4909597;29;20075;-42
2023/08/05 03:08:32;;;;;;;3.13;1.92;;;22.50;1.00;;;;;;4909941;29;20060;-41
2023/08/05 03:11:00;;;;;;;2.78;1.42;;;22.40;1.00;;;;;;4918648;29;20044;-41
2023/08/05 03:13:28;;;;;;;6.32;1.40;;;22.40;1.00;;;;;;4901864;29;20052;-42
2023/08/05 03:16:10;;;;;;;1.85;0.95;;;22.40;1.00;;;;;;4900820;29;20060;-41
2023/08/05 03:18:42;;;;;;;3.28;1.55;;;22.40;1.00;;;;;;4908741;29;20055;-40
2023/08/05 03:21:09;;;;;;;2.90;1.38;;;22.40;1.00;;;;;;4901735;29;20040;-43
2023/08/05 03:23:37;;;;;;;3.90;1.17;;;22.40;1.00;;;;;;4900971;29;20499;-43
2023/08/05 03:26:05;;;;;;;2.13;1.20;;;22.40;1.00;;;;;;4909150;29;20072;-41
2023/08/05 03:28:32;;;;;;;2.65;1.25;;;22.40;1.00;;;;;;4900690;29;20048;-41
2023/08/05 03:30:59;;;;;;;2.33;1.40;;;22.40;1.00;;;;;;4907829;29;20052;-40
2023/08/05 03:33:29;;;;;;;3.53;1.30;;;22.40;1.00;;;;;;4902581;29;20044;-41
2023/08/05 03:35:57;;;;;;;2.63;1.25;;;22.40;1.00;;;;;;4908195;29;20457;-41
2023/08/05 03:38:26;;;;;;;2.63;0.80;;;22.40;1.00;;;;;;4903195;29;20052;-41
2023/08/05 03:40:54;;;;;;;1.65;1.15;;;22.40;1.00;;;;;;4909568;29;20040;-42
2023/08/05 03:43:21;;;;;;;2.22;1.38;;;22.40;1.00;;;;;;4917732;29;20103;-41
2023/08/05 03:45:51;;;;;;;2.50;1.00;;;22.40;1.00;;;;;;4926221;29;20059;-41
2023/08/05 03:48:18;;;;;;;2.85;1.00;;;22.40;1.00;;;;;;4910498;29;20044;-41
2023/08/05 03:50:46;;;;;;;4.40;1.52;;;22.40;1.00;;;;;;4924573;29;20142;-40
2023/08/05 03:53:12;;;;;;;1.95;0.93;;;22.40;1.00;;;;;;4909325;29;20052;-41
2023/08/05 03:55:39;;;;;;;2.15;1.63;;;22.40;1.00;;;;;;4908877;29;20048;-40
2023/08/05 03:58:07;;;;;;;2.17;1.30;;;22.30;1.00;;;;;;4908766;29;20508;-40
2023/08/05 04:00:36;;;;;;;1.63;1.02;;;22.40;1.00;;;;;;4917544;29;20028;-43
2023/08/05 04:03:03;;;;;;;2.97;1.13;;;22.40;1.00;;;;;;4923622;29;20123;-43
2023/08/05 04:05:30;;;;;;;2.05;1.20;;;22.30;1.00;;;;;;4901880;29;20044;-44
2023/08/05 04:07:59;;;;;;;2.45;1.15;;;22.30;1.00;;;;;;4893221;29;20040;-43
2023/08/05 04:10:25;;;;;;;2.78;1.58;;;22.30;1.00;;;;;;4903737;29;20052;-42
2023/08/05 04:12:52;;;;;;;3.00;1.27;;;22.30;1.00;;;;;;4922144;29;20126;-40
2023/08/05 04:15:20;;;;;;;2.70;1.02;;;22.30;1.00;;;;;;4925021;29;20043;-41
2023/08/05 04:17:47;;;;;;;2.30;1.10;;;22.30;1.00;;;;;;4908121;29;20036;-41
2023/08/05 04:20:15;;;;;;;3.92;1.42;;;22.30;1.00;;;;;;4917193;29;20045;-41
2023/08/05 04:22:43;;;;;;;2.75;1.92;;;22.30;1.00;;;;;;4924397;29;20091;-41
2023/08/05 04:25:11;;;;;;;3.30;1.40;;;22.30;1.00;;;;;;4925873;29;20301;-40
2023/08/05 04:27:38;;;;;;;2.72;1.15;;;22.30;1.00;;;;;;4916941;29;20055;-41
2023/08/05 04:30:07;;;;;;;2.83;1.15;;;22.30;1.00;;;;;;4916916;29;20112;-41
2023/08/05 04:32:34;;;;;;;2.28;1.23;;;22.30;1.00;;;;;;4913617;29;20048;-41
2023/08/05 04:35:01;;;;;;;7.60;2.20;;;22.30;1.00;;;;;;4906426;29;20127;-42
2023/08/05 04:37:28;;;;;;;7.28;2.85;;;22.30;1.00;;;;;;4903665;29;20514;-43
2023/08/05 04:39:55;;;;;;;6.25;2.13;;;22.30;1.00;;;;;;4916828;29;20036;-41
2023/08/05 04:42:21;;;;;;;8.65;3.20;;;22.30;1.00;;;;;;4920688;29;20072;-43
2023/08/05 04:44:48;;;;;;;6.05;2.55;;;22.20;1.00;;;;;;4904136;29;20044;-40
2023/08/05 04:47:15;;;;;;;6.25;2.63;;;22.20;1.00;;;;;;4910342;29;20519;-40
2023/08/05 04:49:44;;;;;;;7.82;2.65;;;22.20;1.00;;;;;;4928634;29;20092;-40
2023/08/05 04:52:12;;;;;;;6.18;2.38;;;22.20;1.00;;;;;;4923771;29;20048;-40
2023/08/05 04:54:40;;;;;;;14.05;2.33;;;22.10;1.00;;;;;;4914510;29;20064;-40
2023/08/05 04:57:07;;;;;;;12.57;2.38;;;22.10;1.00;;;;;;4920588;29;20040;-40
2023/08/05 04:59:34;;;;;;;14.23;2.83;;;22.10;1.00;;;;;;4928274;29;20078;-40
2023/08/05 05:02:01;;;;;;;16.17;3.15;;;22.10;1.00;;;;;;4912081;29;20041;-41
2023/08/05 05:04:28;;;;;;;7.20;2.38;;;22.10;1.00;;;;;;4921460;29;20044;-41
2023/08/05 05:06:55;;;;;;;7.95;2.20;;;22.10;1.00;;;;;;4913194;29;20053;-40
2023/08/05 05:09:22;;;;;;;8.88;3.35;;;22.10;1.00;;;;;;4909571;29;20055;-40
2023/08/05 05:11:49;;;;;;;6.30;2.38;;;22.10;1.00;;;;;;4928808;29;20040;-40
2023/08/05 05:14:16;;;;;;;13.38;3.03;;;22.00;1.00;;;;;;4889608;29;20052;-40
2023/08/05 05:16:43;;;;;;;10.80;3.72;;;22.00;1.00;;;;;;4909963;29;20037;-41
2023/08/05 05:19:10;;;;;;;10.98;2.80;;;22.00;1.00;;;;;;4912942;29;20444;-40
2023/08/05 05:21:36;;;;;;;6.32;2.35;;;22.00;1.00;;;;;;4909614;29;20189;-41
2023/08/05 05:24:05;;;;;;;8.55;2.72;;;22.00;1.00;;;;;;4909929;29;20451;-39
2023/08/05 05:26:32;;;;;;;7.22;3.15;;;22.00;1.00;;;;;;4910716;29;20047;-39
2023/08/05 05:28:58;;;;;;;5.40;2.42;;;22.00;1.00;;;;;;4908275;29;20052;-39
2023/08/05 05:31:25;;;;;;;4.50;2.53;;;21.90;1.00;;;;;;4916007;29;20056;-40
2023/08/05 05:33:52;;;;;;;5.57;2.53;;;21.90;1.00;;;;;;4908128;29;20044;-40
2023/08/05 05:36:19;;;;;;;4.63;2.42;;;21.90;1.00;;;;;;4909862;29;20045;-45
2023/08/05 05:38:46;;;;;;;4.90;2.58;;;21.90;1.00;;;;;;4908280;29;20044;-40
2023/08/05 05:41:13;;;;;;;6.05;2.20;;;21.90;1.00;;;;;;4909487;29;20036;-40
2023/08/05 05:43:39;;;;;;;6.35;2.33;;;21.90;1.00;;;;;;4895854;29;20453;-40
2023/08/05 05:46:06;;;;;;;4.25;2.45;;;21.90;1.00;;;;;;4907286;29;20044;-40
2023/08/05 05:48:33;;;;;;;5.35;2.70;;;21.90;1.00;;;;;;4897182;29;20045;-41
2023/08/05 05:51:00;;;;;;;3.08;2.15;;;21.80;1.00;;;;;;4907319;29;20472;-41
2023/08/05 05:53:27;;;;;;;4.53;2.20;;;21.80;1.00;;;;;;4897766;29;20047;-43
2023/08/05 05:55:54;;;;;;;8.45;1.90;;;21.80;1.00;;;;;;4889592;29;20051;-41
2023/08/05 05:58:20;;;;;;;5.35;2.78;;;21.80;1.00;;;;;;4907260;29;20047;-41
2023/08/05 06:00:53;;;;;;;4.15;2.08;;;21.80;1.00;;;;;;4907349;29;20048;-41
2023/08/05 06:03:20;;;;;;;5.13;2.65;;;21.80;1.00;;;;;;4912908;29;20493;-41
2023/08/05 06:05:50;;;;;;;3.38;1.95;;;21.80;1.00;;;;;;4906824;29;20048;-41
2023/08/05 06:08:17;;;;;;;7.63;2.63;;;21.80;1.00;;;;;;4907947;29;20052;-43
2023/08/05 06:10:44;;;;;;;9.43;1.80;;;21.80;1.00;;;;;;4909706;29;20032;-41
2023/08/05 06:13:11;;;;;;;4.25;1.98;;;21.80;1.00;;;;;;4906142;29;20056;-40
2023/08/05 06:15:39;;;;;;;6.90;1.75;;;21.80;1.00;;;;;;4918575;29;20088;-41
2023/08/05 06:18:08;;;;;;;12.32;4.82;;;21.70;1.00;;;;;;4925918;29;20061;-42
2023/08/05 06:20:35;;;;;;;4.20;1.55;;;21.70;1.00;;;;;;4922044;29;20082;-40
2023/08/05 06:23:03;;;;;;;5.57;2.20;;;21.70;1.00;;;;;;4914736;29;20067;-42
2023/08/05 06:25:30;;;;;;;2.67;1.13;;;21.70;1.00;;;;;;4925091;29;20043;-41
2023/08/05 06:27:57;;;;;;;2.95;1.90;;;21.70;1.00;;;;;;4918715;29;20095;-40
2023/08/05 06:30:24;;;;;;;4.28;2.60;;;21.70;1.00;;;;;;4919439;29;20052;-41
2023/08/05 06:32:50;;;;;;;3.35;1.30;;;21.70;1.00;;;;;;4909233;29;20067;-43
2023/08/05 06:35:17;;;;;;;3.38;1.90;;;21.70;1.00;;;;;;4917550;29;20051;-41
2023/08/05 06:37:44;;;;;;;4.55;1.60;;;21.70;1.00;;;;;;4926399;29;20040;-41
2023/08/05 06:40:11;;;;;;;4.20;1.25;;;21.70;1.00;;;;;;4917723;29;20412;-41
2023/08/05 06:42:38;;;;;;;3.15;1.63;;;21.70;1.00;;;;;;4917581;29;20126;-41
2023/08/05 06:45:06;;;;;;;4.90;2.10;;;21.70;1.00;;;;;;4925534;29;20449;-41
2023/08/05 06:47:33;;;;;;;5.55;1.90;;;21.70;1.00;;;;;;4908767;29;20078;-43
2023/08/05 06:50:02;;;;;;;9.90;2.90;;;21.70;1.00;;;;;;4926449;29;20048;-41
2023/08/05 06:52:29;;;;;;;5.82;2.90;;;21.70;1.00;;;;;;4925049;29;20046;-41
2023/08/05 06:55:00;;;;;;;4.90;1.95;;;21.70;1.00;;;;;;4925356;29;20140;-40
2023/08/05 06:57:27;;;;;;;5.57;1.67;;;21.70;1.00;;;;;;4908346;29;20048;-40
2023/08/05 06:59:54;;;;;;;5.53;1.95;;;21.70;1.00;;;;;;4918561;29;20075;-41
2023/08/05 07:02:21;;;;;;;4.30;1.40;;;21.70;1.00;;;;;;4900181;29;20085;-42
2023/08/05 07:04:48;;;;;;;3.13;1.60;;;21.70;1.00;;;;;;4908042;29;20053;-41
2023/08/05 07:07:14;;;;;;;3.72;1.65;;;21.70;1.00;;;;;;4886761;29;20128;-42
2023/08/05 07:09:41;;;;;;;3.58;1.10;;;21.70;1.00;;;;;;4905274;29;20068;-42
2023/08/05 07:12:08;;;;;;;4.30;1.50;;;21.80;1.00;;;;;;4904312;29;20045;-41
2023/08/05 07:14:35;;;;;;;4.20;1.60;;;21.80;1.00;;;;;;4905143;29;20467;-41
2023/08/05 07:17:02;;;;;;;6.32;1.83;;;21.80;1.00;;;;;;4905262;29;20037;-42
2023/08/05 07:19:29;;;;;;;8.13;1.63;;;21.80;1.00;;;;;;4914643;29;20099;-44
2023/08/05 07:21:56;;;;;;;6.65;1.95;;;21.80;1.00;;;;;;4915613;29;20043;-40
2023/08/05 07:24:23;;;;;;;8.90;1.70;;;21.80;1.00;;;;;;4916242;29;20099;-41
2023/08/05 07:26:49;;;;;;;4.40;1.60;;;21.80;1.00;;;;;;4918174;29;20064;-44
2023/08/05 07:29:16;;;;;;;4.70;1.88;;;21.90;1.00;;;;;;4909762;29;20157;-45
2023/08/05 07:31:43;;;;;;;6.20;1.80;;;21.80;1.00;;;;;;4903670;29;20045;-41
2023/08/05 07:34:10;;;;;;;2.95;1.52;;;21.90;1.00;;;;;;4918720;29;20055;-40
2023/08/05 07:36:37;;;;;;;3.88;1.08;;;21.90;1.00;;;;;;4919862;29;20048;-46
2023/08/05 07:39:06;;;;;;;3.50;1.40;;;21.90;1.00;;;;;;4918611;29;20056;-42
2023/08/05 07:41:34;;;;;;;4.00;1.65;;;21.90;1.00;;;;;;4923799;29;20108;-43
2023/08/05 07:44:01;;;;;;;3.05;1.25;;;21.90;1.00;;;;;;4918967;29;20511;-41
2023/08/05 07:46:31;;;;;;;8.73;1.80;;;21.90;1.00;;;;;;4922911;29;20071;-45
2023/08/05 07:49:00;;;;;;;11.73;1.60;;;21.90;1.00;;;;;;4915476;29;20080;-41
2023/08/05 07:51:28;;;;;;;5.05;1.35;;;21.90;1.00;;;;;;4904571;29;20068;-40
2023/08/05 07:53:57;;;;;;;5.18;1.75;;;21.90;1.00;;;;;;4917911;29;20115;-41
2023/08/05 07:56:24;;;;;;;2.75;1.23;;;21.90;1.00;;;;;;4923546;29;20107;-41
2023/08/05 07:58:51;;;;;;;5.40;1.50;;;21.90;1.00;;;;;;4911021;29;20040;-41
2023/08/05 08:01:22;;;;;;;3.05;1.15;;;21.90;1.00;;;;;;4896245;29;20512;-41
2023/08/05 08:03:53;;;;;;;2.77;1.10;;;21.90;1.00;;;;;;4924212;29;20068;-40
2023/08/05 08:06:21;;;;;;;9.63;1.60;;;21.90;1.00;;;;;;4923171;29;20506;-40
2023/08/05 08:08:48;;;;;;;2.03;1.40;;;21.90;1.00;;;;;;4923674;29;20120;-40
2023/08/05 08:11:15;;;;;;;4.43;1.35;;;22.00;1.00;;;;;;4916770;29;20437;-40
2023/08/05 08:13:42;;;;;;;1.35;0.80;;;22.00;1.00;;;;;;4909812;29;20055;-42
2023/08/05 08:16:09;;;;;;;1.38;0.95;;;22.00;1.00;;;;;;4917896;29;20054;-45
2023/08/05 08:18:36;;;;;;;3.22;1.30;;;22.00;1.00;;;;;;4906306;29;20536;-41
2023/08/05 08:21:04;;;;;;;6.47;2.00;;;22.00;1.00;;;;;;4903958;29;20526;-43
2023/08/05 08:23:32;;;;;;;4.57;1.90;;;22.00;1.00;;;;;;4919278;29;20050;-44
2023/08/05 08:25:59;;;;;;;1.98;1.33;;;22.00;1.00;;;;;;4907465;29;20054;-40
2023/08/05 08:28:27;;;;;;;3.35;1.35;;;22.00;1.00;;;;;;4912575;29;20230;-41
2023/08/05 08:30:55;;;;;;;5.55;1.30;;;22.00;1.00;;;;;;4912073;29;20048;-43
2023/08/05 08:33:23;;;;;;;4.18;1.20;;;22.00;1.00;;;;;;4887299;29;20044;-43
2023/08/05 08:35:51;;;;;;;7.45;1.95;;;22.00;1.00;;;;;;4889108;29;20058;-42
2023/08/05 08:38:18;;;;;;;7.15;2.90;;;22.00;1.00;;;;;;4903061;29;20096;-43
2023/08/05 08:40:56;;;;;;;5.13;1.75;;;22.00;1.00;;;;;;4887797;29;20033;-40
2023/08/05 08:43:22;;;;;;;4.57;2.15;;;22.00;1.00;;;;;;4916393;29;20496;-41
2023/08/05 08:45:53;;;;;;;9.57;2.00;;;22.00;1.00;;;;;;4903678;29;20408;-41
2023/08/05 08:48:20;;;;;;;3.60;1.30;;;22.10;1.00;;;;;;4911511;29;20142;-41
2023/08/05 08:50:53;;;;;;;6.00;1.42;;;22.10;1.00;;;;;;4915892;29;20040;-43
2023/08/05 08:53:21;;;;;;;4.65;1.00;;;22.10;1.00;;;;;;4922782;29;20048;-43
2023/08/05 08:55:49;;;;;;;4.70;1.58;;;22.10;1.00;;;;;;4915801;29;20044;-41
2023/08/05 08:58:16;;;;;;;8.32;1.42;;;22.10;1.00;;;;;;4905951;29;20048;-43
2023/08/05 09:00:43;;;;;;;1.52;1.38;;;22.10;1.00;;;;;;4921798;29;20052;-41
2023/08/05 09:03:11;;;;;;;2.55;1.58;;;22.10;1.00;;;;;;4922646;29;20044;-42
2023/08/05 09:05:45;;;;;;;2.03;1.35;;;22.10;1.00;;;;;;4919272;29;20245;-44
2023/08/05 09:08:12;;;;;;;3.88;1.73;;;22.10;1.00;;;;;;4910829;29;20044;-46
2023/08/05 09:10:39;;;;;;;3.17;1.27;;;22.10;1.00;;;;;;4922520;29;20044;-43
2023/08/05 09:13:07;;;;;;;2.58;1.40;;;22.20;1.00;;;;;;4916133;29;20044;-40
2023/08/05 09:15:36;;;;;;;2.83;1.38;;;22.20;1.00;;;;;;4920069;29;20143;-41
2023/08/05 09:18:05;;;;;;;1.80;1.23;;;22.20;1.00;;;;;;4916396;29;20374;-41
2023/08/05 09:20:32;;;;;;;5.40;1.30;;;22.20;1.00;;;;;;4920328;29;20044;-42
2023/08/05 09:23:01;;;;;;;1.90;1.30;;;22.20;1.00;;;;;;4922532;29;20092;-43
2023/08/05 09:25:30;;;;;;;2.97;1.42;;;22.20;1.00;;;;;;4921900;29;20076;-42
2023/08/05 09:28:00;;;;;;;2.78;1.17;;;22.20;1.00;;;;;;4918690;29;20048;-44
2023/08/05 09:30:27;;;;;;;4.80;1.20;;;22.20;1.00;;;;;;4917968;29;20052;-41
2023/08/05 09:32:55;;;;;;;1.90;1.38;;;22.20;1.00;;;;;;4905411;29;20080;-45
2023/08/05 09:35:24;;;;;;;4.10;1.95;;;22.20;1.00;;;;;;4922817;29;20051;-41
2023/08/05 09:37:52;;;;;;;1.48;1.00;;;22.20;1.00;;;;;;4901754;29;20052;-41
2023/08/05 09:40:22;;;;;;;4.20;1.65;;;22.20;1.00;;;;;;4926264;29;20063;-41
2023/08/05 09:42:50;;;;;;;3.00;1.10;;;22.20;1.00;;;;;;4926530;29;20489;-42
2023/08/05 09:45:19;;;;;;;2.20;1.27;;;22.20;1.00;;;;;;4909546;29;20063;-41
2023/08/05 09:47:47;;;;;;;2.33;1.17;;;22.20;1.00;;;;;;4923693;29;20116;-41
2023/08/05 09:50:15;;;;;;;2.70;1.23;;;22.20;1.00;;;;;;4921258;29;20063;-41
2023/08/05 09:52:43;;;;;;;5.68;1.80;;;22.30;1.00;;;;;;4925234;29;20052;-41
2023/08/05 09:55:15;;;;;;;2.00;1.17;;;22.30;1.00;;;;;;4909002;29;20083;-42
2023/08/05 09:57:43;;;;;;;2.92;1.30;;;22.30;1.00;;;;;;4918214;29;20404;-42
2023/08/05 10:00:11;;;;;;;1.50;1.08;;;22.30;1.00;;;;;;4926143;29;20048;-42
2023/08/05 10:02:44;;;;;;;2.42;1.30;;;22.30;1.00;;;;;;4918826;29;20076;-41
2023/08/05 10:05:12;;;;;;;4.20;1.10;;;22.30;1.00;;;;;;4925242;29;20127;-41
2023/08/05 10:07:40;;;;;;;4.40;1.70;;;22.30;1.00;;;;;;4926116;29;20083;-41
2023/08/05 10:10:08;;;;;;;2.53;1.50;;;22.30;1.00;;;;;;4918581;29;20381;-41
2023/08/05 10:12:57;;;;;;;3.10;1.70;;;22.30;1.00;;;;;;4925035;29;20116;-41
2023/08/05 10:15:33;;;;;;;2.65;1.40;;;22.30;1.00;;;;;;4914664;29;20475;-42
2023/08/05 10:18:00;;;;;;;2.40;1.30;;;22.30;1.00;;;;;;4908068;29;20048;-40
2023/08/05 10:20:34;;;;;;;5.35;2.20;;;22.30;1.00;;;;;;4923569;29;20396;-41
2023/08/05 10:23:03;;;;;;;5.07;1.85;;;22.30;1.00;;;;;;4904534;29;20108;-41
2023/08/05 10:26:00;;;;;;;4.75;1.70;;;22.30;1.00;;;;;;4923488;29;20099;-41
2023/08/05 10:28:33;;;;;;;2.97;1.98;;;22.30;1.00;;;;;;4917424;29;20067;-41
2023/08/05 10:31:04;;;;;;;4.38;2.15;;;22.30;1.00;;;;;;4918873;29;20046;-40
2023/08/05 10:33:32;;;;;;;4.07;1.90;;;22.30;1.00;;;;;;4909433;29;20059;-41
2023/08/05 10:36:06;;;;;;;3.30;1.55;;;22.30;1.00;;;;;;4926140;29;20066;-41
2023/08/05 10:38:42;;;;;;;4.15;1.40;;;22.30;1.00;;;;;;4898481;29;20050;-41
2023/08/05 10:41:10;;;;;;;6.18;1.67;;;22.30;1.00;;;;;;4916234;29;20539;-40
2023/08/05 10:43:41;;;;;;;1.73;1.40;;;22.30;1.00;;;;;;4917842;29;20052;-40
2023/08/05 10:46:12;;;;;;;2.35;1.58;;;22.30;1.00;;;;;;4927479;29;20642;-43
2023/08/05 10:48:41;;;;;;;2.53;2.13;;;22.30;1.00;;;;;;4908803;29;20054;-41
2023/08/05 10:51:08;;;;;;;3.40;1.67;;;22.30;1.00;;;;;;4924896;29;20048;-43
2023/08/05 10:53:35;;;;;;;4.40;2.17;;;22.30;1.00;;;;;;4917212;29;20056;-43
2023/08/05 10:56:07;;;;;;;2.28;1.55;;;22.30;1.00;;;;;;4917078;29;20064;-43
2023/08/05 10:58:36;;;;;;;5.45;1.85;;;22.30;1.00;;;;;;4924845;29;20048;-41
2023/08/05 11:01:04;;;;;;;4.43;2.13;;;22.30;1.00;;;;;;4892778;29;20150;-40
2023/08/05 11:03:47;;;;;;;3.00;1.70;;;22.30;1.00;;;;;;4923163;29;20068;-42
2023/08/05 11:06:20;;;;;;;3.63;2.15;;;22.30;1.00;;;;;;4924279;29;20068;-42
2023/08/05 11:08:47;;;;;;;2.83;1.55;;;22.30;1.00;;;;;;4924618;29;20048;-44
2023/08/05 11:11:15;;;;;;;4.15;2.05;;;22.30;1.00;;;;;;4923873;29;20099;-41
2023/08/05 11:13:46;;;;;;;4.13;1.48;;;22.30;1.00;;;;;;4924928;29;20071;-42
2023/08/05 11:16:18;;;;;;;2.75;1.70;;;22.30;1.00;;;;;;4908066;29;20131;-43
2023/08/05 11:18:55;;;;;;;4.88;1.85;;;22.30;1.00;;;;;;4925035;29;20099;-40
2023/08/05 11:21:22;;;;;;;1.73;1.40;;;22.30;1.00;;;;;;4917639;29;20076;-41
2023/08/05 11:23:49;;;;;;;5.38;2.03;;;22.30;1.00;;;;;;4924096;29;20112;-43
2023/08/05 11:26:21;;;;;;;2.90;1.60;;;22.30;1.00;;;;;;4923476;29;20048;-41
2023/08/05 11:28:48;;;;;;;3.08;1.75;;;22.30;1.00;;;;;;4924082;29;20078;-42
2023/08/05 11:31:25;;;;;;;4.65;1.92;;;22.30;1.00;;;;;;4916707;29;20123;-43
2023/08/05 11:33:53;;;;;;;3.00;1.85;;;22.30;1.00;;;;;;4910890;29;20119;-43
2023/08/05 11:36:28;;;;;;;4.00;1.63;;;22.30;1.00;;;;;;4900444;29;20083;-41
2023/08/05 11:39:00;;;;;;;3.38;1.88;;;22.30;1.00;;;;;;4914558;29;20045;-44
2023/08/05 11:41:28;;;;;;;2.45;1.77;;;22.30;1.00;;;;;;4915457;29;20041;-43
2023/08/05 11:43:55;;;;;;;3.63;2.03;;;22.30;1.00;;;;;;4905134;29;20044;-41
2023/08/05 11:46:29;;;;;;;3.55;1.63;;;22.30;1.00;;;;;;4922576;29;20127;-47
2023/08/05 11:49:14;;;;;;;2.50;1.55;;;22.30;1.00;;;;;;4888730;29;20151;-41
2023/08/05 11:51:51;;;;;;;4.68;2.00;;;22.30;1.00;;;;;;4897859;29;20045;-45
2023/08/05 11:54:32;;;;;;;2.95;2.00;;;22.30;1.00;;;;;;4904861;29;20048;-41
2023/08/05 11:56:59;;;;;;;4.90;1.92;;;22.30;1.00;;;;;;4905964;29;20044;-44
2023/08/05 11:59:43;;;;;;;5.50;2.22;;;22.30;1.00;;;;;;4903959;29;20064;-42
2023/08/05 12:02:15;;;;;;;3.42;1.45;;;22.30;1.00;;;;;;4888500;29;20052;-41
2023/08/05 12:04:51;;;;;;;3.33;1.50;;;22.30;1.00;;;;;;4904089;29;20044;-40
2023/08/05 12:07:20;;;;;;;3.33;1.98;;;22.30;1.00;;;;;;4903203;29;20052;-41
2023/08/05 12:10:07;;;;;;;4.35;1.98;;;22.30;1.00;;;;;;4887500;29;20125;-41
2023/08/05 12:12:35;;;;;;;5.63;2.00;;;22.30;1.00;;;;;;4902358;29;20044;-42
2023/08/05 12:15:24;;;;;;;3.45;1.88;;;22.30;1.00;;;;;;4891783;29;20077;-40
2023/08/05 12:18:02;;;;;;;4.13;1.83;;;22.30;1.00;;;;;;4886417;29;20061;-43
2023/08/05 12:20:33;;;;;;;3.35;1.85;;;22.30;1.00;;;;;;4888376;29;20555;-40
2023/08/05 12:23:01;;;;;;;5.30;1.60;;;22.30;1.00;;;;;;4902122;29;20048;-44
2023/08/05 12:25:29;;;;;;;3.78;1.63;;;22.30;1.00;;;;;;4901181;29;20471;-44
2023/08/05 12:27:58;;;;;;;3.20;1.80;;;22.30;1.00;;;;;;4920726;29;20044;-42
2023/08/05 12:30:26;;;;;;;6.25;1.83;;;22.30;1.00;;;;;;4918606;29;20051;-44
2023/08/05 12:32:56;;;;;;;2.67;1.80;;;22.30;1.00;;;;;;4925054;29;20067;-40
2023/08/05 12:35:27;;;;;;;3.42;1.40;;;22.30;1.00;;;;;;4923816;29;20052;-42
2023/08/05 12:37:54;;;;;;;4.00;1.90;;;22.30;1.00;;;;;;4916348;29;20051;-41
2023/08/05 12:40:21;;;;;;;6.10;1.85;;;22.30;1.00;;;;;;4899727;29;20403;-43
2023/08/05 12:42:48;;;;;;;6.38;1.98;;;22.30;1.00;;;;;;4901117;29;20051;-39
2023/08/05 12:45:15;;;;;;;4.30;1.67;;;22.30;1.00;;;;;;4902470;29;20401;-40
2023/08/05 12:47:42;;;;;;;2.78;1.70;;;22.30;1.00;;;;;;4900721;29;20415;-41
2023/08/05 12:50:09;;;;;;;2.60;1.63;;;22.30;1.00;;;;;;4920254;29;20063;-40
2023/08/05 12:52:36;;;;;;;3.88;1.98;;;22.30;1.00;;;;;;4920538;29;20040;-40
2023/08/05 12:55:03;;;;;;;2.10;1.42;;;22.30;1.00;;;;;;4912520;29;20043;-41
2023/08/05 12:57:32;;;;;;;3.92;1.55;;;22.30;1.00;;;;;;4920875;29;20416;-40
2023/08/05 12:59:59;;;;;;;3.03;1.75;;;22.30;1.00;;;;;;4912968;29;20048;-40
2023/08/05 13:02:26;;;;;;;3.67;1.50;;;22.30;1.00;;;;;;4923215;29;20040;-40
2023/08/05 13:04:53;;;;;;;1.98;1.60;;;22.20;1.00;;;;;;4922705;29;20076;-41